createdAt,value
2023-05-10T00:00:26.999Z,2.70
2023-05-10T00:03:00.322Z,2.88
2023-05-10T00:05:30.745Z,2.40
2023-05-10T00:08:01.327Z,2.80
2023-05-10T00:10:33.672Z,2.53
2023-05-10T00:13:04.059Z,2.78
2023-05-10T00:15:36.672Z,2.58
2023-05-10T00:18:14.956Z,2.88
2023-05-10T00:20:48.809Z,2.50
2023-05-10T00:23:20.556Z,2.30
2023-05-10T00:25:50.969Z,2.33
2023-05-10T00:28:21.311Z,2.80
2023-05-10T00:30:52.958Z,2.72
2023-05-10T00:33:25.917Z,2.78
2023-05-10T00:35:56.128Z,2.72
2023-05-10T00:38:26.627Z,3.00
2023-05-10T00:40:57.082Z,2.50
2023-05-10T00:43:29.949Z,2.63
2023-05-10T00:46:02.850Z,2.45
2023-05-10T00:48:36.081Z,2.80
2023-05-10T00:51:10.262Z,2.50
2023-05-10T00:53:40.634Z,2.50
2023-05-10T00:56:18.650Z,2.55
2023-05-10T00:58:51.732Z,3.60
2023-05-10T01:01:25.985Z,2.50
2023-05-10T01:04:05.298Z,2.95
2023-05-10T01:06:37.132Z,3.05
2023-05-10T01:09:08.723Z,2.75
2023-05-10T01:11:40.025Z,2.70
2023-05-10T01:14:13.462Z,2.45
2023-05-10T01:16:51.325Z,3.47
2023-05-10T01:19:32.095Z,2.70
2023-05-10T01:22:09.213Z,2.97
2023-05-10T01:25:09.805Z,2.40
2023-05-10T01:27:57.975Z,2.80
2023-05-10T01:31:02.644Z,2.58
2023-05-10T01:33:43.151Z,2.83
2023-05-10T01:36:27.297Z,2.50
2023-05-10T01:39:02.507Z,2.70
2023-05-10T01:41:44.805Z,3.60
2023-05-10T01:44:22.076Z,2.85
2023-05-10T01:47:04.261Z,2.72
2023-05-10T01:49:43.384Z,3.22
2023-05-10T01:52:17.185Z,2.95
2023-05-10T01:54:57.350Z,2.97
2023-05-10T01:57:34.471Z,2.90
2023-05-10T02:00:06.574Z,2.78
2023-05-10T02:02:41.247Z,2.95
2023-05-10T02:05:16.912Z,3.15
2023-05-10T02:07:48.807Z,2.95
2023-05-10T02:10:21.054Z,3.28
2023-05-10T02:13:02.566Z,3.28
2023-05-10T02:15:33.958Z,3.10
2023-05-10T02:18:08.956Z,3.10
2023-05-10T02:20:44.685Z,3.15
2023-05-10T02:23:15.825Z,3.08
2023-05-10T02:25:51.520Z,3.28
2023-05-10T02:28:26.092Z,3.47
2023-05-10T02:30:58.264Z,3.25
2023-05-10T02:33:29.671Z,2.63
2023-05-10T02:36:06.725Z,2.85
2023-05-10T02:38:40.439Z,2.78
2023-05-10T02:41:13.795Z,2.88
2023-05-10T02:43:45.509Z,3.00
2023-05-10T02:46:15.845Z,2.88
2023-05-10T02:48:52.043Z,3.20
2023-05-10T02:51:29.470Z,3.22
2023-05-10T02:54:01.438Z,3.03
2023-05-10T02:56:37.068Z,2.80
2023-05-10T02:59:07.607Z,3.10
2023-05-10T03:01:37.972Z,2.38
2023-05-10T03:04:08.500Z,3.22
2023-05-10T03:06:41.538Z,3.22
2023-05-10T03:09:13.840Z,2.72
2023-05-10T03:12:00.770Z,3.28
2023-05-10T03:14:44.284Z,2.60
2023-05-10T03:17:19.530Z,3.40
2023-05-10T03:19:56.863Z,3.05
2023-05-10T03:22:36.364Z,3.65
2023-05-10T03:25:10.185Z,3.13
2023-05-10T03:27:43.137Z,3.10
2023-05-10T03:30:18.249Z,3.30
2023-05-10T03:32:51.832Z,2.85
2023-05-10T03:35:24.740Z,3.83
2023-05-10T03:37:59.733Z,3.33
2023-05-10T03:40:33.235Z,3.65
2023-05-10T03:43:05.913Z,2.75
2023-05-10T03:45:39.099Z,3.20
2023-05-10T03:48:10.190Z,3.20
2023-05-10T03:50:40.529Z,3.45
2023-05-10T03:53:18.388Z,2.80
2023-05-10T03:55:51.768Z,3.08
2023-05-10T03:58:23.088Z,2.58
2023-05-10T04:00:58.146Z,2.85
2023-05-10T04:03:29.025Z,3.20
2023-05-10T04:06:03.720Z,3.30
2023-05-10T04:08:39.983Z,3.63
2023-05-10T04:11:11.414Z,3.00
2023-05-10T04:13:41.948Z,3.47
2023-05-10T04:16:13.728Z,3.20
2023-05-10T04:18:49.871Z,3.55
2023-05-10T04:21:23.631Z,2.80
2023-05-10T04:24:03.679Z,3.17
2023-05-10T04:26:43.299Z,2.78
2023-05-10T04:29:14.733Z,2.47
2023-05-10T04:31:46.289Z,3.70
2023-05-10T04:34:19.539Z,3.65
2023-05-10T04:36:49.987Z,3.13
2023-05-10T04:39:26.137Z,3.45
2023-05-10T04:41:56.410Z,2.92
2023-05-10T04:44:27.926Z,3.20
2023-05-10T04:46:58.564Z,2.58
2023-05-10T04:49:31.172Z,3.08
2023-05-10T04:52:03.621Z,2.60
2023-05-10T04:54:36.506Z,2.50
2023-05-10T04:57:09.864Z,3.30
2023-05-10T04:59:43.779Z,3.30
2023-05-10T05:02:14.620Z,3.05
2023-05-10T05:04:48.775Z,3.50
2023-05-10T05:07:21.356Z,3.30
2023-05-10T05:09:54.287Z,3.13
2023-05-10T05:12:24.489Z,2.97
2023-05-10T05:15:00.023Z,2.78
2023-05-10T05:17:31.764Z,3.25
2023-05-10T05:20:03.450Z,2.83
2023-05-10T05:22:34.376Z,3.15
2023-05-10T05:25:08.238Z,3.03
2023-05-10T05:27:38.794Z,3.10
2023-05-10T05:30:12.440Z,3.55
2023-05-10T05:32:42.811Z,3.63
2023-05-10T05:35:16.566Z,3.17
2023-05-10T05:37:47.375Z,3.00
2023-05-10T05:40:21.573Z,3.83
2023-05-10T05:45:25.688Z,2.92
2023-05-10T05:47:56.024Z,2.72
2023-05-10T05:50:26.410Z,3.17
2023-05-10T05:52:57.815Z,2.13
2023-05-10T05:55:32.713Z,2.53
2023-05-10T05:58:02.988Z,2.47
2023-05-10T06:00:33.322Z,2.53
2023-05-10T06:03:08.363Z,2.33
2023-05-10T06:05:39.311Z,3.07
2023-05-10T06:08:10.165Z,2.97
2023-05-10T06:10:45.738Z,3.20
2023-05-10T06:13:17.105Z,2.85
2023-05-10T06:15:48.776Z,3.40
2023-05-10T06:18:19.347Z,3.40
2023-05-10T06:20:56.243Z,3.22
2023-05-10T06:23:28.573Z,2.45
2023-05-10T06:26:09.553Z,2.90
2023-05-10T06:28:40.324Z,2.65
2023-05-10T06:31:12.744Z,2.67
2023-05-10T06:33:43.388Z,3.03
2023-05-10T06:36:16.179Z,2.88
2023-05-10T06:38:46.506Z,2.60
2023-05-10T06:41:23.968Z,3.22
2023-05-10T06:43:55.068Z,2.95
2023-05-10T06:46:28.354Z,3.38
2023-05-10T06:48:59.677Z,2.72
2023-05-10T06:51:30.168Z,2.83
2023-05-10T06:54:20.350Z,2.83
2023-05-10T06:56:55.372Z,3.13
2023-05-10T06:59:26.040Z,3.00
2023-05-10T07:01:59.130Z,2.90
2023-05-10T07:04:29.460Z,3.50
2023-05-10T07:06:59.781Z,2.83
2023-05-10T07:09:32.327Z,2.85
2023-05-10T07:12:11.129Z,3.05
2023-05-10T07:14:42.434Z,2.97
2023-05-10T07:17:15.414Z,2.97
2023-05-10T07:19:45.659Z,2.90
2023-05-10T07:22:18.440Z,3.10
2023-05-10T07:24:50.309Z,2.97
2023-05-10T07:27:23.317Z,3.30
2023-05-10T07:29:53.652Z,3.60
2023-05-10T07:32:24.380Z,3.30
2023-05-10T07:37:28.291Z,3.22
2023-05-10T07:39:59.044Z,2.97
2023-05-10T07:42:31.848Z,3.30
2023-05-10T07:45:02.527Z,3.37
2023-05-10T07:47:32.839Z,3.70
2023-05-10T07:50:08.482Z,3.45
2023-05-10T07:52:38.778Z,3.05
2023-05-10T07:55:18.194Z,3.50
2023-05-10T07:57:51.491Z,4.35
2023-05-10T08:00:23.393Z,3.58
2023-05-10T08:02:54.216Z,3.78
2023-05-10T08:05:24.865Z,2.90
2023-05-10T08:07:57.750Z,3.65
2023-05-10T08:10:29.043Z,3.90
2023-05-10T08:13:04.689Z,3.72
2023-05-10T08:15:37.834Z,3.27
2023-05-10T08:18:08.320Z,3.45
2023-05-10T08:20:41.255Z,3.63
2023-05-10T08:23:11.665Z,3.25
2023-05-10T08:25:44.584Z,3.65
2023-05-10T08:28:17.460Z,3.63
2023-05-10T08:30:47.691Z,4.05
2023-05-10T08:33:18.099Z,3.70
2023-05-10T08:35:48.908Z,3.78
2023-05-10T08:38:19.581Z,3.72
2023-05-10T08:40:52.033Z,2.90
2023-05-10T08:43:34.156Z,3.38
2023-05-10T08:46:05.353Z,3.50
2023-05-10T08:48:38.322Z,2.90
2023-05-10T08:51:12.810Z,2.70
2023-05-10T08:53:44.784Z,3.80
2023-05-10T08:56:19.963Z,4.03
2023-05-10T08:58:55.020Z,3.53
2023-05-10T09:01:26.495Z,3.50
2023-05-10T09:03:57.740Z,3.40
2023-05-10T09:06:28.306Z,3.83
2023-05-10T09:09:00.485Z,3.33
2023-05-10T09:11:31.312Z,4.00
2023-05-10T09:14:05.077Z,3.40
2023-05-10T09:19:08.425Z,3.10
2023-05-10T09:21:42.263Z,3.80
2023-05-10T09:24:16.030Z,3.70
2023-05-10T09:26:54.427Z,3.80
2023-05-10T09:29:27.688Z,3.28
2023-05-10T09:31:58.554Z,3.20
2023-05-10T09:34:37.300Z,3.40
2023-05-10T09:37:07.945Z,3.28
2023-05-10T09:39:39.769Z,3.60
2023-05-10T09:42:11.771Z,4.72
2023-05-10T09:44:45.142Z,3.40
2023-05-10T09:47:21.906Z,3.25
2023-05-10T09:49:54.622Z,2.53
2023-05-10T09:52:29.574Z,3.22
2023-05-10T09:55:02.710Z,2.88
2023-05-10T09:57:35.165Z,3.13
2023-05-10T10:00:11.276Z,2.40
2023-05-10T10:02:42.749Z,2.55
2023-05-10T10:05:15.651Z,2.63
2023-05-10T10:07:50.468Z,3.13
2023-05-10T10:10:21.106Z,2.70
2023-05-10T10:12:52.626Z,2.70
2023-05-10T10:15:26.515Z,2.25
2023-05-10T10:17:58.507Z,2.00
2023-05-10T10:20:32.497Z,2.10
2023-05-10T10:23:04.306Z,1.98
2023-05-10T10:25:34.966Z,2.47
2023-05-10T10:28:22.318Z,2.90
2023-05-10T10:31:01.767Z,3.10
2023-05-10T10:33:48.065Z,3.08
2023-05-10T10:36:19.726Z,2.90
2023-05-10T10:39:08.279Z,2.80
2023-05-10T10:41:42.120Z,2.00
2023-05-10T10:44:38.110Z,2.20
2023-05-10T10:47:32.038Z,2.78
2023-05-10T10:50:14.672Z,2.90
2023-05-10T10:52:45.785Z,2.72
2023-05-10T10:55:19.298Z,2.35
2023-05-10T11:00:32.649Z,2.90
2023-05-10T11:03:09.307Z,2.50
2023-05-10T11:05:44.520Z,2.70
2023-05-10T11:08:20.887Z,2.88
2023-05-10T11:11:08.654Z,2.80
2023-05-10T11:13:43.071Z,2.55
2023-05-10T11:16:21.845Z,2.28
2023-05-10T11:19:04.013Z,2.40
2023-05-10T11:21:36.360Z,2.45
2023-05-10T11:24:18.020Z,2.85
2023-05-10T11:26:48.711Z,2.88
2023-05-10T11:29:20.382Z,2.55
2023-05-10T11:31:51.736Z,2.45
2023-05-10T11:34:37.372Z,3.25
2023-05-10T11:37:07.726Z,2.92
2023-05-10T11:39:43.210Z,2.90
2023-05-10T11:42:15.932Z,2.70
2023-05-10T11:44:49.561Z,2.28
2023-05-10T11:47:20.435Z,2.72
2023-05-10T11:49:55.679Z,3.05
2023-05-10T11:52:25.936Z,2.65
2023-05-10T11:54:57.803Z,2.58
2023-05-10T11:57:32.597Z,2.72
2023-05-10T12:00:07.512Z,2.38
2023-05-10T12:02:40.181Z,2.45
2023-05-10T12:05:13.970Z,2.90
2023-05-10T12:07:44.949Z,2.60
2023-05-10T12:10:19.508Z,2.50
2023-05-10T12:12:51.956Z,1.80
2023-05-10T12:15:23.759Z,2.15
2023-05-10T12:17:55.287Z,2.58
2023-05-10T12:20:31.413Z,2.35
2023-05-10T12:23:04.456Z,1.65
2023-05-10T12:25:36.773Z,2.03
2023-05-10T12:28:09.875Z,2.10
2023-05-10T12:30:41.370Z,1.80
2023-05-10T12:33:13.059Z,1.98
2023-05-10T12:35:57.572Z,2.10
2023-05-10T12:38:33.178Z,1.80
2023-05-10T12:41:04.878Z,2.45
2023-05-10T12:43:35.772Z,1.90
2023-05-10T12:46:11.375Z,2.00
2023-05-10T12:48:43.782Z,2.30
2023-05-10T12:51:23.166Z,2.13
2023-05-10T12:53:53.451Z,1.83
2023-05-10T12:56:23.763Z,1.52
2023-05-10T12:58:54.382Z,1.60
2023-05-10T13:01:27.257Z,1.50
2023-05-10T13:03:57.497Z,1.80
2023-05-10T13:06:30.625Z,1.73
2023-05-10T13:09:03.849Z,1.73
2023-05-10T13:11:34.122Z,1.80
2023-05-10T13:14:07.154Z,2.00
2023-05-10T13:16:38.824Z,1.80
2023-05-10T13:19:09.379Z,1.83
2023-05-10T13:21:45.515Z,1.83
2023-05-10T13:24:16.309Z,1.85
2023-05-10T13:26:47.016Z,1.77
2023-05-10T13:29:19.239Z,1.33
2023-05-10T13:31:50.390Z,1.80
2023-05-10T13:34:21.726Z,1.60
2023-05-10T13:36:55.060Z,1.88
2023-05-10T13:39:28.006Z,1.58
2023-05-10T13:41:58.839Z,1.60
2023-05-10T13:44:29.051Z,1.70
2023-05-10T13:47:00.403Z,1.70
2023-05-10T13:49:31.189Z,2.45
2023-05-10T13:52:07.938Z,1.65
2023-05-10T13:54:38.308Z,1.60
2023-05-10T13:57:08.928Z,1.70
2023-05-10T13:59:39.305Z,1.50
2023-05-10T14:02:10.981Z,1.50
2023-05-10T14:04:43.942Z,1.65
2023-05-10T14:07:16.831Z,1.87
2023-05-10T14:09:47.201Z,1.73
2023-05-10T14:12:19.614Z,1.60
2023-05-10T14:14:52.634Z,1.33
2023-05-10T14:17:23.500Z,2.00
2023-05-10T14:19:56.115Z,1.30
2023-05-10T14:22:29.536Z,1.80
2023-05-10T14:25:03.416Z,1.30
2023-05-10T14:30:06.136Z,1.35
2023-05-10T14:32:40.532Z,1.50
2023-05-10T14:35:14.971Z,1.50
2023-05-10T14:37:50.903Z,1.50
2023-05-10T14:40:22.803Z,1.60
2023-05-10T14:42:57.864Z,1.48
2023-05-10T14:45:29.209Z,1.58
2023-05-10T14:47:59.711Z,1.20
2023-05-10T14:50:36.878Z,1.40
2023-05-10T14:53:10.114Z,1.70
2023-05-10T14:55:42.699Z,1.50
2023-05-10T14:58:15.225Z,1.45
2023-05-10T15:00:45.581Z,1.52
2023-05-10T15:03:19.412Z,1.45
2023-05-10T15:05:50.650Z,1.67
2023-05-10T15:08:35.049Z,1.50
2023-05-10T15:11:05.288Z,1.30
2023-05-10T15:13:35.515Z,1.70
2023-05-10T15:16:08.602Z,1.30
2023-05-10T15:18:38.858Z,1.60
2023-05-10T15:21:09.357Z,1.75
2023-05-10T15:23:42.492Z,1.45
2023-05-10T15:26:15.512Z,1.60
2023-05-10T15:28:46.837Z,1.30
2023-05-10T15:31:17.626Z,1.50
2023-05-10T15:33:50.342Z,1.40
2023-05-10T15:36:21.107Z,1.40
2023-05-10T15:38:57.503Z,1.48
2023-05-10T15:41:31.325Z,1.42
2023-05-10T15:44:05.155Z,1.52
2023-05-10T15:49:07.799Z,1.50
2023-05-10T15:51:38.044Z,1.90
2023-05-10T15:54:14.234Z,1.63
2023-05-10T15:56:44.901Z,1.58
2023-05-10T15:59:17.367Z,1.70
2023-05-10T16:01:50.078Z,1.75
2023-05-10T16:04:20.374Z,1.60
2023-05-10T16:06:50.636Z,1.63
2023-05-10T16:09:23.492Z,1.58
2023-05-10T16:11:55.963Z,1.60
2023-05-10T16:14:26.377Z,1.60
2023-05-10T16:17:05.070Z,1.52
2023-05-10T16:19:35.551Z,1.50
2023-05-10T16:22:09.369Z,1.30
2023-05-10T16:27:18.896Z,1.35
2023-05-10T16:29:50.709Z,1.27
2023-05-10T16:32:20.922Z,1.48
2023-05-10T16:34:51.340Z,1.70
2023-05-10T16:37:21.647Z,1.60
2023-05-10T16:39:54.550Z,1.40
2023-05-10T16:42:26.889Z,1.37
2023-05-10T16:45:07.594Z,1.50
2023-05-10T16:47:38.539Z,1.38
2023-05-10T16:50:17.585Z,1.60
2023-05-10T16:53:01.938Z,1.60
2023-05-10T16:55:35.210Z,1.48
2023-05-10T16:58:06.511Z,1.60
2023-05-10T17:00:38.172Z,1.60
2023-05-10T17:03:08.520Z,1.52
2023-05-10T17:05:38.915Z,1.52
2023-05-10T17:08:12.825Z,1.80
2023-05-10T17:10:45.674Z,1.58
2023-05-10T17:13:17.322Z,1.55
2023-05-10T17:15:50.025Z,1.70
2023-05-10T17:18:20.447Z,1.60
2023-05-10T17:20:58.110Z,1.67
2023-05-10T17:23:29.427Z,1.80
2023-05-10T17:26:07.154Z,1.50
2023-05-10T17:28:37.469Z,1.90
2023-05-10T17:31:20.233Z,1.90
2023-05-10T17:34:00.167Z,2.03
2023-05-10T17:36:33.662Z,2.08
2023-05-10T17:39:06.433Z,1.80
2023-05-10T17:41:42.614Z,1.80
2023-05-10T17:44:14.121Z,1.85
2023-05-10T17:46:46.812Z,1.80
2023-05-10T17:49:17.336Z,2.35
2023-05-10T17:51:48.410Z,2.08
2023-05-10T17:54:18.730Z,2.03
2023-05-10T17:56:54.568Z,2.03
2023-05-10T17:59:27.762Z,1.77
2023-05-10T18:02:00.034Z,2.00
2023-05-10T18:04:30.660Z,2.78
2023-05-10T18:07:01.858Z,2.92
2023-05-10T18:09:34.313Z,3.83
2023-05-10T18:12:18.756Z,3.72
2023-05-10T18:14:54.389Z,4.50
2023-05-10T18:17:25.185Z,3.72
2023-05-10T18:19:55.853Z,2.70
2023-05-10T18:22:29.688Z,3.15
2023-05-10T18:27:35.214Z,2.88
2023-05-10T18:30:06.490Z,3.10
2023-05-10T18:32:43.029Z,3.50
2023-05-10T18:35:14.559Z,3.55
2023-05-10T18:37:45.510Z,3.45
2023-05-10T18:40:16.710Z,3.35
2023-05-10T18:42:50.420Z,4.30
2023-05-10T18:45:24.106Z,3.60
2023-05-10T18:47:54.896Z,3.65
2023-05-10T18:50:25.553Z,3.78
2023-05-10T18:52:57.128Z,3.60
2023-05-10T18:55:28.690Z,3.03
2023-05-10T18:58:02.027Z,2.60
2023-05-10T19:00:32.705Z,3.03
2023-05-10T19:03:03.606Z,2.70
2023-05-10T19:05:34.298Z,3.25
2023-05-10T19:08:07.958Z,2.75
2023-05-10T19:10:38.813Z,2.67
2023-05-10T19:13:13.047Z,3.00
2023-05-10T19:15:48.238Z,2.55
2023-05-10T19:18:22.634Z,2.80
2023-05-10T19:20:53.531Z,3.20
2023-05-10T19:23:30.356Z,2.70
2023-05-10T19:26:01.380Z,2.72
2023-05-10T19:28:37.299Z,3.30
2023-05-10T19:31:09.031Z,3.00
2023-05-10T19:33:42.695Z,3.70
2023-05-10T19:36:21.195Z,3.50
2023-05-10T19:38:57.394Z,2.95
2023-05-10T19:41:28.875Z,3.20
2023-05-10T19:44:05.089Z,2.60
2023-05-10T19:46:39.199Z,2.92
2023-05-10T19:49:13.978Z,3.15
2023-05-10T19:51:49.495Z,3.05
2023-05-10T19:54:20.292Z,2.75
2023-05-10T19:56:50.978Z,3.28
2023-05-10T19:59:24.204Z,2.90
2023-05-10T20:01:54.916Z,3.53
2023-05-10T20:04:25.660Z,3.03
2023-05-10T20:06:56.422Z,3.08
2023-05-10T20:09:28.306Z,2.95
2023-05-10T20:11:59.711Z,2.55
2023-05-10T20:14:32.691Z,2.65
2023-05-10T20:17:03.499Z,3.10
2023-05-10T20:19:33.857Z,2.90
2023-05-10T20:22:05.550Z,3.10
2023-05-10T20:24:36.379Z,3.03
2023-05-10T20:27:08.208Z,3.15
2023-05-10T20:29:41.265Z,2.50
2023-05-10T20:32:11.935Z,2.67
2023-05-10T20:34:42.551Z,2.47
2023-05-10T20:37:13.522Z,2.75
2023-05-10T20:39:44.174Z,3.00
2023-05-10T20:42:14.701Z,2.78
2023-05-10T20:44:48.012Z,2.55
2023-05-10T20:47:19.284Z,2.58
2023-05-10T20:49:52.224Z,2.90
2023-05-10T20:52:24.532Z,2.85
2023-05-10T20:54:55.253Z,2.53
2023-05-10T20:57:25.508Z,2.47
2023-05-10T21:00:01.449Z,2.60
2023-05-10T21:02:32.089Z,2.63
2023-05-10T21:05:02.908Z,2.50
2023-05-10T21:07:33.780Z,2.80
2023-05-10T21:10:04.095Z,2.67
2023-05-10T21:12:34.925Z,2.78
2023-05-10T21:15:08.503Z,2.70
2023-05-10T21:17:38.796Z,2.50
2023-05-10T21:20:10.774Z,2.53
2023-05-10T21:22:40.988Z,2.60
2023-05-10T21:25:14.950Z,2.35
2023-05-10T21:30:23.590Z,2.70
2023-05-10T21:32:59.950Z,2.38
2023-05-10T21:35:30.348Z,2.83
2023-05-10T21:38:00.587Z,2.45
2023-05-10T21:40:33.694Z,2.50
2023-05-10T21:43:03.966Z,2.60
2023-05-10T21:45:36.931Z,2.53
2023-05-10T21:48:07.724Z,2.47
2023-05-10T21:50:39.097Z,2.70
2023-05-10T21:53:09.331Z,2.20
2023-05-10T21:55:39.779Z,2.50
2023-05-10T21:58:10.280Z,2.40
2023-05-10T22:00:43.456Z,2.78
2023-05-10T22:03:13.858Z,2.90
2023-05-10T22:05:44.215Z,2.53
2023-05-10T22:08:14.417Z,2.90
2023-05-10T22:10:45.043Z,2.17
2023-05-10T22:13:15.531Z,2.60
2023-05-10T22:15:48.513Z,2.92
2023-05-10T22:18:21.338Z,3.50
2023-05-10T22:20:51.629Z,2.80
2023-05-10T22:23:25.166Z,2.55
2023-05-10T22:25:55.435Z,2.70
2023-05-10T22:28:25.881Z,2.85
2023-05-10T22:30:58.849Z,2.70
2023-05-10T22:33:31.192Z,2.63
2023-05-10T22:36:01.732Z,2.38
2023-05-10T22:38:31.985Z,2.80
2023-05-10T22:41:05.358Z,2.63
2023-05-10T22:43:35.651Z,2.50
2023-05-10T22:46:08.869Z,2.30
2023-05-10T22:48:39.174Z,2.45
2023-05-10T22:51:09.470Z,2.70
2023-05-10T22:53:39.733Z,2.67
2023-05-10T22:56:11.632Z,2.33
2023-05-10T22:58:41.877Z,2.90
2023-05-10T23:01:14.779Z,2.30
2023-05-10T23:03:46.551Z,2.20
2023-05-10T23:06:18.811Z,2.17
2023-05-10T23:08:49.549Z,2.22
2023-05-10T23:11:19.790Z,2.38
2023-05-10T23:13:51.172Z,3.17
2023-05-10T23:16:24.407Z,2.60
2023-05-10T23:18:55.031Z,2.42
2023-05-10T23:21:25.694Z,2.42
2023-05-10T23:23:57.020Z,2.40
2023-05-10T23:26:27.215Z,2.88
2023-05-10T23:28:57.777Z,2.63
2023-05-10T23:31:30.682Z,2.70
2023-05-10T23:34:00.945Z,2.03
2023-05-10T23:36:33.767Z,2.40
2023-05-10T23:39:06.847Z,2.20
2023-05-10T23:41:37.152Z,2.13
2023-05-10T23:44:07.757Z,1.90
2023-05-10T23:46:40.707Z,2.00
2023-05-10T23:49:10.887Z,2.17
2023-05-10T23:51:41.331Z,1.83
2023-05-10T23:54:11.585Z,2.30
2023-05-10T23:56:41.850Z,2.10
2023-05-10T23:59:12.169Z,2.15
